createdAt,value
2018-11-11T00:02:26.840Z,98501.78
2018-11-11T00:04:55.952Z,98508.13
2018-11-11T00:07:24.552Z,98524.92
2018-11-11T00:09:53.097Z,98530.66
2018-11-11T00:12:21.912Z,98527.66
2018-11-11T00:14:50.423Z,98539.63
2018-11-11T00:17:18.968Z,98537.30
2018-11-11T00:19:47.474Z,98546.00
2018-11-11T00:22:16.024Z,98553.05
2018-11-11T00:24:44.537Z,98556.17
2018-11-11T00:27:13.076Z,98551.78
2018-11-11T00:29:41.569Z,98548.19
2018-11-11T00:32:10.386Z,98557.37
2018-11-11T00:34:38.892Z,98553.42
2018-11-11T00:37:07.460Z,98550.31
2018-11-11T00:39:35.994Z,98540.08
2018-11-11T00:42:04.560Z,98537.56
2018-11-11T00:44:33.353Z,98539.22
2018-11-11T00:47:01.889Z,98531.75
2018-11-11T00:49:30.452Z,98534.60
2018-11-11T00:51:59.678Z,98494.44
2018-11-11T00:54:28.200Z,98528.19
2018-11-11T00:56:56.780Z,98527.22
2018-11-11T00:59:25.501Z,98539.63
2018-11-11T01:01:54.055Z,98540.60
2018-11-11T01:04:22.591Z,98525.72
2018-11-11T01:06:51.153Z,98538.23
2018-11-11T01:09:20.912Z,98544.91
2018-11-11T01:11:49.510Z,98546.22
2018-11-11T01:14:18.032Z,98545.51
2018-11-11T01:16:46.607Z,98542.31
2018-11-11T01:19:15.125Z,98540.28
2018-11-11T01:21:43.757Z,98544.34
2018-11-11T01:24:12.289Z,98545.05
2018-11-11T01:26:40.840Z,98543.63
2018-11-11T01:29:09.357Z,98542.05
2018-11-11T01:31:37.908Z,98552.93
2018-11-11T01:34:06.437Z,98562.61
2018-11-11T01:36:35.013Z,98563.92
2018-11-11T01:39:03.792Z,98559.75
2018-11-11T01:41:32.361Z,98563.69
2018-11-11T01:44:00.873Z,98558.30
2018-11-11T01:46:29.427Z,98555.20
2018-11-11T01:48:58.015Z,98550.20
2018-11-11T01:51:26.533Z,98534.55
2018-11-11T01:53:55.080Z,98538.62
2018-11-11T01:56:23.593Z,98544.59
2018-11-11T01:58:52.131Z,98519.28
2018-11-11T02:01:20.634Z,98509.34
2018-11-11T02:03:49.180Z,98501.01
2018-11-11T02:06:17.688Z,98493.93
2018-11-11T02:08:46.229Z,98498.36
2018-11-11T02:11:14.894Z,98498.84
2018-11-11T02:13:43.595Z,98521.52
2018-11-11T02:16:12.197Z,98538.23
2018-11-11T02:18:40.741Z,98539.92
2018-11-11T02:21:09.295Z,98538.60
2018-11-11T02:23:37.913Z,98540.17
2018-11-11T02:26:06.474Z,98528.80
2018-11-11T02:28:35.006Z,98535.48
2018-11-11T02:31:03.531Z,98531.31
2018-11-11T02:33:32.064Z,98526.66
2018-11-11T02:36:00.569Z,98518.55
2018-11-11T02:38:29.217Z,98519.14
2018-11-11T02:40:57.729Z,98517.72
2018-11-11T02:43:26.292Z,98520.23
2018-11-11T02:45:54.816Z,98519.88
2018-11-11T02:48:23.364Z,98514.25
2018-11-11T02:50:51.906Z,98515.68
2018-11-11T02:53:20.456Z,98509.59
2018-11-11T02:55:48.982Z,98521.41
2018-11-11T02:58:17.556Z,98519.14
2018-11-11T03:00:46.090Z,98523.22
2018-11-11T03:03:14.649Z,98517.82
2018-11-11T03:05:43.172Z,98509.72
2018-11-11T03:08:11.725Z,98506.73
2018-11-11T03:10:40.269Z,98511.01
2018-11-11T03:13:08.824Z,98509.59
2018-11-11T03:15:37.337Z,98509.23
2018-11-11T03:18:06.329Z,98508.63
2018-11-11T03:20:34.864Z,98506.61
2018-11-11T03:23:03.416Z,98503.50
2018-11-11T03:25:31.954Z,98500.05
2018-11-11T03:28:00.539Z,98496.58
2018-11-11T03:30:29.067Z,98487.72
2018-11-11T03:32:57.621Z,98490.48
2018-11-11T03:35:26.472Z,98497.05
2018-11-11T03:37:54.980Z,98502.05
2018-11-11T03:40:23.533Z,98503.50
2018-11-11T03:42:52.201Z,98504.70
2018-11-11T03:45:21.533Z,98511.36
2018-11-11T03:47:51.295Z,98508.39
2018-11-11T03:50:19.988Z,98513.16
2018-11-11T03:52:48.597Z,98513.05
2018-11-11T03:55:17.590Z,98513.39
2018-11-11T03:57:46.104Z,98512.56
2018-11-11T04:00:15.781Z,98503.14
2018-11-11T04:02:44.338Z,98500.86
2018-11-11T04:05:14.081Z,98505.54
2018-11-11T04:07:42.676Z,98506.60
2018-11-11T04:10:13.767Z,98508.14
2018-11-11T04:12:42.497Z,98507.20
2018-11-11T04:15:15.540Z,98506.72
2018-11-11T04:17:44.067Z,98500.52
2018-11-11T04:20:15.228Z,98496.33
2018-11-11T04:22:43.780Z,98485.20
2018-11-11T04:25:12.776Z,98490.94
2018-11-11T04:27:41.511Z,98499.30
2018-11-11T04:30:10.868Z,98516.97
2018-11-11T04:32:39.430Z,98532.09
2018-11-11T04:35:08.265Z,98532.35
2018-11-11T04:37:37.079Z,98503.09
2018-11-11T04:40:07.299Z,98492.48
2018-11-11T04:42:35.815Z,98503.55
2018-11-11T04:45:04.405Z,98515.85
2018-11-11T04:47:32.998Z,98510.23
2018-11-11T04:50:01.549Z,98512.85
2018-11-11T04:52:30.062Z,98508.80
2018-11-11T04:54:58.613Z,98511.17
2018-11-11T04:57:27.164Z,98520.73
2018-11-11T04:59:55.768Z,98535.66
2018-11-11T05:02:24.297Z,98546.86
2018-11-11T05:04:52.847Z,98559.84
2018-11-11T05:07:21.357Z,98558.63
2018-11-11T05:09:49.969Z,98559.34
2018-11-11T05:12:18.488Z,98559.12
2018-11-11T05:14:47.042Z,98564.81
2018-11-11T05:17:16.485Z,98569.28
2018-11-11T05:19:45.045Z,98558.63
2018-11-11T05:22:13.569Z,98566.13
2018-11-11T05:24:42.125Z,98568.37
2018-11-11T05:27:10.641Z,98576.89
2018-11-11T05:29:39.208Z,98573.28
2018-11-11T05:32:08.014Z,98580.44
2018-11-11T05:34:36.537Z,98579.34
2018-11-11T05:37:05.621Z,98578.97
2018-11-11T05:39:34.145Z,98582.31
2018-11-11T05:42:02.698Z,98578.42
2018-11-11T05:44:31.233Z,98578.77
2018-11-11T05:46:59.941Z,98591.00
2018-11-11T05:49:28.465Z,98594.38
2018-11-11T05:51:57.080Z,98600.55
2018-11-11T05:54:25.736Z,98602.80
2018-11-11T05:56:54.295Z,98603.30
2018-11-11T05:59:22.807Z,98607.51
2018-11-11T06:01:51.470Z,98615.70
2018-11-11T06:04:19.987Z,98615.70
2018-11-11T06:06:48.780Z,98614.77
2018-11-11T06:09:17.306Z,98613.69
2018-11-11T06:11:45.848Z,98616.69
2018-11-11T06:14:14.741Z,98612.16
2018-11-11T06:16:43.300Z,98622.53
2018-11-11T06:19:11.827Z,98627.89
2018-11-11T06:21:40.393Z,98630.84
2018-11-11T06:24:08.900Z,98629.16
2018-11-11T06:26:39.105Z,98639.81
2018-11-11T06:29:09.659Z,98649.98
2018-11-11T06:31:38.217Z,98650.39
2018-11-11T06:34:06.943Z,98656.25
2018-11-11T06:36:35.409Z,98657.08
2018-11-11T06:39:05.157Z,98653.95
2018-11-11T06:41:33.744Z,98655.42
2018-11-11T06:44:02.333Z,98658.06
2018-11-11T06:46:31.224Z,98661.90
2018-11-11T06:48:59.961Z,98667.23
2018-11-11T06:51:28.513Z,98669.95
2018-11-11T06:53:57.149Z,98669.07
2018-11-11T06:56:25.729Z,98670.52
2018-11-11T06:58:54.258Z,98668.34
2018-11-11T07:01:24.649Z,98682.62
2018-11-11T07:03:56.203Z,98688.52
2018-11-11T07:06:25.564Z,98690.59
2018-11-11T07:08:55.452Z,98688.94
2018-11-11T07:11:24.033Z,98696.38
2018-11-11T07:13:52.602Z,98690.49
2018-11-11T07:16:21.174Z,98693.12
2018-11-11T07:18:50.109Z,98697.32
2018-11-11T07:21:19.108Z,98696.30
2018-11-11T07:23:50.002Z,98705.37
2018-11-11T07:26:21.131Z,98705.52
2018-11-11T07:28:49.692Z,98710.66
2018-11-11T07:31:20.450Z,98714.14
2018-11-11T07:33:49.809Z,98712.63
2018-11-11T07:36:18.504Z,98715.25
2018-11-11T07:38:47.449Z,98718.22
2018-11-11T07:41:16.344Z,98711.55
2018-11-11T07:43:44.943Z,98729.84
2018-11-11T07:46:14.453Z,98736.95
2018-11-11T07:48:43.372Z,98741.34
2018-11-11T07:51:12.044Z,98746.34
2018-11-11T07:53:40.707Z,98748.73
2018-11-11T07:56:09.654Z,98745.66
2018-11-11T07:58:38.318Z,98741.38
2018-11-11T08:01:07.112Z,98745.04
2018-11-11T08:03:36.115Z,98755.65
2018-11-11T08:06:04.741Z,98760.20
2018-11-11T08:08:33.304Z,98764.77
2018-11-11T08:11:13.025Z,98765.31
2018-11-11T08:13:41.563Z,98757.45
2018-11-11T08:16:10.089Z,98757.94
2018-11-11T08:18:38.687Z,98756.74
2018-11-11T08:21:07.383Z,98752.95
2018-11-11T08:23:36.213Z,98766.11
2018-11-11T08:26:04.737Z,98767.16
2018-11-11T08:28:36.405Z,98758.77
2018-11-11T08:31:05.321Z,98760.47
2018-11-11T08:33:34.140Z,98763.55
2018-11-11T08:36:02.989Z,98762.99
2018-11-11T08:38:31.607Z,98769.94
2018-11-11T08:41:03.663Z,98770.21
2018-11-11T08:43:32.799Z,98776.80
2018-11-11T08:46:01.759Z,98775.32
2018-11-11T08:48:30.328Z,98768.30
2018-11-11T08:50:58.921Z,98761.98
2018-11-11T08:53:27.509Z,98763.30
2018-11-11T08:55:56.239Z,98772.02
2018-11-11T08:58:24.808Z,98776.89
2018-11-11T09:00:53.360Z,98780.89
2018-11-11T09:03:21.982Z,98781.52
2018-11-11T09:05:50.572Z,98769.57
2018-11-11T09:08:19.137Z,98770.40
2018-11-11T09:10:47.795Z,98771.06
2018-11-11T09:13:18.465Z,98784.21
2018-11-11T09:15:47.984Z,98783.50
2018-11-11T09:18:21.490Z,98788.18
2018-11-11T09:20:51.382Z,98796.87
2018-11-11T09:23:20.015Z,98794.50
2018-11-11T09:25:48.609Z,98789.02
2018-11-11T09:28:17.186Z,98785.06
2018-11-11T09:30:45.732Z,98786.95
2018-11-11T09:33:14.681Z,98781.35
2018-11-11T09:35:43.210Z,98796.53
2018-11-11T09:38:11.780Z,98792.00
2018-11-11T09:40:40.345Z,98791.20
2018-11-11T09:43:08.924Z,98795.02
2018-11-11T09:45:37.626Z,98794.77
2018-11-11T09:48:06.185Z,98795.36
2018-11-11T09:50:38.019Z,98798.25
2018-11-11T09:53:06.680Z,98789.04
2018-11-11T09:55:35.248Z,98791.08
2018-11-11T09:58:03.785Z,98781.26
2018-11-11T10:00:32.344Z,98795.86
2018-11-11T10:03:10.306Z,98798.00
2018-11-11T10:05:48.722Z,98796.08
2018-11-11T10:08:25.878Z,98801.58
2018-11-11T10:11:33.932Z,98803.64
2018-11-11T10:14:20.326Z,98803.61
2018-11-11T10:16:54.183Z,98812.60
2018-11-11T10:19:28.041Z,98817.97
2018-11-11T10:24:04.248Z,98808.16
2018-11-11T10:26:44.416Z,98812.77
2018-11-11T10:29:20.397Z,98813.58
2018-11-11T10:31:52.969Z,98820.42
2018-11-11T10:34:29.881Z,98825.25
2018-11-11T10:37:04.460Z,98821.24
2018-11-11T10:39:36.644Z,98819.19
2018-11-11T10:44:15.319Z,98808.52
2018-11-11T10:46:50.828Z,98798.09
2018-11-11T10:49:28.746Z,98803.41
2018-11-11T10:51:57.440Z,98804.23
2018-11-11T10:54:28.771Z,98799.28
2018-11-11T10:56:57.343Z,98812.73
2018-11-11T10:59:26.022Z,98816.89
2018-11-11T11:02:02.754Z,98823.03
2018-11-11T11:04:33.017Z,98810.25
2018-11-11T11:07:06.993Z,98822.13
2018-11-11T11:09:35.934Z,98817.92
2018-11-11T11:12:04.645Z,98812.89
2018-11-11T11:14:33.216Z,98822.98
2018-11-11T11:17:01.828Z,98827.61
2018-11-11T11:19:30.937Z,98835.07
2018-11-11T11:22:00.656Z,98832.47
2018-11-11T11:24:29.260Z,98834.86
2018-11-11T11:26:57.907Z,98832.25
2018-11-11T11:29:26.537Z,98840.29
2018-11-11T11:31:55.186Z,98840.05
2018-11-11T11:34:24.462Z,98839.06
2018-11-11T11:36:53.148Z,98838.66
2018-11-11T11:39:21.806Z,98835.65
2018-11-11T11:41:51.480Z,98837.21
2018-11-11T11:44:20.249Z,98847.30
2018-11-11T11:46:48.829Z,98847.89
2018-11-11T11:49:17.696Z,98846.48
2018-11-11T11:51:46.289Z,98843.10
2018-11-11T11:54:14.888Z,98844.42
2018-11-11T11:56:43.435Z,98841.78
2018-11-11T11:59:12.042Z,98844.67
2018-11-11T12:01:40.626Z,98848.63
2018-11-11T12:04:09.501Z,98842.49
2018-11-11T12:06:38.129Z,98843.69
2018-11-11T12:09:10.417Z,98834.58
2018-11-11T12:11:39.456Z,98834.20
2018-11-11T12:14:08.098Z,98832.27
2018-11-11T12:16:36.710Z,98827.98
2018-11-11T12:19:05.697Z,98835.11
2018-11-11T12:21:35.882Z,98829.34
2018-11-11T12:24:04.982Z,98825.95
2018-11-11T12:26:33.529Z,98815.72
2018-11-11T12:29:02.087Z,98820.24
2018-11-11T12:31:30.628Z,98803.89
2018-11-11T12:34:00.118Z,98809.57
2018-11-11T12:36:28.741Z,98809.75
2018-11-11T12:38:57.415Z,98806.47
2018-11-11T12:41:25.896Z,98798.98
2018-11-11T12:43:54.457Z,98800.61
2018-11-11T12:46:23.003Z,98800.42
2018-11-11T12:48:58.043Z,98791.88
2018-11-11T12:51:29.579Z,98791.48
2018-11-11T12:53:58.560Z,98794.79
2018-11-11T12:56:27.071Z,98797.56
2018-11-11T12:58:56.445Z,98797.63
2018-11-11T13:01:27.390Z,98797.63
2018-11-11T13:03:56.045Z,98793.30
2018-11-11T13:06:24.693Z,98793.17
2018-11-11T13:08:53.244Z,98794.63
2018-11-11T13:11:25.507Z,98789.83
2018-11-11T13:13:54.412Z,98795.45
2018-11-11T13:16:22.964Z,98805.75
2018-11-11T13:18:51.524Z,98796.77
2018-11-11T13:21:20.049Z,98790.27
2018-11-11T13:23:48.596Z,98783.52
2018-11-11T13:26:17.113Z,98781.28
2018-11-11T13:28:45.676Z,98782.23
2018-11-11T13:31:14.199Z,98782.53
2018-11-11T13:33:48.854Z,98785.47
2018-11-11T13:36:18.792Z,98780.05
2018-11-11T13:38:48.730Z,98789.80
2018-11-11T13:41:18.189Z,98788.47
2018-11-11T13:43:48.769Z,98777.90
2018-11-11T13:46:22.884Z,98782.23
2018-11-11T13:48:57.461Z,98770.87
2018-11-11T13:51:32.043Z,98770.93
2018-11-11T13:54:08.217Z,98774.56
2018-11-11T13:56:37.620Z,98767.23
2018-11-11T13:59:10.443Z,98772.56
2018-11-11T14:01:44.184Z,98765.41
2018-11-11T14:04:16.495Z,98762.77
2018-11-11T14:06:48.154Z,98767.75
2018-11-11T14:09:17.283Z,98759.55
2018-11-11T14:11:50.241Z,98758.50
2018-11-11T14:14:20.952Z,98764.15
2018-11-11T14:16:55.389Z,98750.66
2018-11-11T14:19:27.080Z,98754.14
2018-11-11T14:21:55.880Z,98752.34
2018-11-11T14:24:24.685Z,98749.56
2018-11-11T14:26:56.717Z,98752.21
2018-11-11T14:29:27.305Z,98749.63
2018-11-11T14:32:01.594Z,98749.61
2018-11-11T14:34:30.294Z,98754.00
2018-11-11T14:37:02.627Z,98745.39
2018-11-11T14:39:31.914Z,98759.11
2018-11-11T14:42:03.014Z,98756.87
2018-11-11T14:44:35.719Z,98758.84
2018-11-11T14:47:05.577Z,98762.81
2018-11-11T14:49:43.048Z,98754.58
2018-11-11T14:52:17.175Z,98746.73
2018-11-11T14:54:50.808Z,98746.38
2018-11-11T14:57:21.174Z,98748.95
2018-11-11T14:59:49.724Z,98754.66
2018-11-11T15:02:24.948Z,98755.32
2018-11-11T15:04:54.790Z,98757.73
2018-11-11T15:07:28.540Z,98760.59
2018-11-11T15:09:59.046Z,98766.29
2018-11-11T15:12:27.691Z,98761.02
2018-11-11T15:14:59.355Z,98761.31
2018-11-11T15:17:32.825Z,98749.28
2018-11-11T15:20:06.800Z,98755.47
2018-11-11T15:22:39.855Z,98751.68
2018-11-11T15:25:11.727Z,98760.81
2018-11-11T15:27:44.466Z,98778.30
2018-11-11T15:30:20.634Z,98780.38
2018-11-11T15:32:52.402Z,98783.89
2018-11-11T15:35:24.587Z,98784.27
2018-11-11T15:37:53.601Z,98788.30
2018-11-11T15:40:29.349Z,98797.47
2018-11-11T15:42:59.253Z,98790.63
2018-11-11T15:45:33.207Z,98807.48
2018-11-11T15:48:04.601Z,98824.56
2018-11-11T15:50:40.568Z,98823.88
2018-11-11T15:53:23.240Z,98829.14
2018-11-11T15:55:59.507Z,98830.55
2018-11-11T15:58:34.153Z,98827.36
2018-11-11T16:01:06.695Z,98823.89
2018-11-11T16:03:39.943Z,98825.61
2018-11-11T16:06:13.492Z,98827.52
2018-11-11T16:08:42.165Z,98829.80
2018-11-11T16:11:10.717Z,98830.28
2018-11-11T16:13:39.228Z,98823.52
2018-11-11T16:16:07.822Z,98824.23
2018-11-11T16:18:36.351Z,98838.22
2018-11-11T16:21:04.925Z,98832.88
2018-11-11T16:23:33.497Z,98833.06
2018-11-11T16:26:02.061Z,98824.23
2018-11-11T16:28:30.575Z,98829.51
2018-11-11T16:30:59.089Z,98814.80
2018-11-11T16:33:27.678Z,98815.34
2018-11-11T16:35:56.705Z,98814.02
2018-11-11T16:38:25.271Z,98818.37
2018-11-11T16:40:55.246Z,98821.96
2018-11-11T16:43:25.653Z,98818.86
2018-11-11T16:45:58.888Z,98818.00
2018-11-11T16:48:28.277Z,98821.24
2018-11-11T16:50:56.796Z,98822.08
2018-11-11T16:53:25.353Z,98814.48
2018-11-11T16:55:55.418Z,98812.31
2018-11-11T16:58:24.037Z,98815.42
2018-11-11T17:00:52.560Z,98808.38
2018-11-11T17:03:21.105Z,98809.25
2018-11-11T17:05:49.656Z,98806.44
2018-11-11T17:08:18.244Z,98805.92
2018-11-11T17:10:46.774Z,98802.72
2018-11-11T17:13:15.409Z,98796.94
2018-11-11T17:15:43.941Z,98795.59
2018-11-11T17:18:14.561Z,98792.09
2018-11-11T17:20:43.192Z,98789.38
2018-11-11T17:23:13.008Z,98796.37
2018-11-11T17:25:41.545Z,98796.42
2018-11-11T17:28:11.211Z,98800.56
2018-11-11T17:30:42.709Z,98794.42
2018-11-11T17:33:15.342Z,98790.34
2018-11-11T17:35:48.428Z,98791.71
2018-11-11T17:38:17.161Z,98793.73
2018-11-11T17:40:45.684Z,98807.11
2018-11-11T17:43:17.418Z,98812.97
2018-11-11T17:45:46.035Z,98804.16
2018-11-11T17:48:14.601Z,98813.34
2018-11-11T17:50:43.133Z,98812.98
2018-11-11T17:53:11.698Z,98816.23
2018-11-11T17:55:40.451Z,98826.17
2018-11-11T17:58:09.180Z,98831.27
2018-11-11T18:00:37.841Z,98823.33
2018-11-11T18:03:06.961Z,98832.77
2018-11-11T18:05:35.497Z,98844.77
2018-11-11T18:08:04.121Z,98843.59
2018-11-11T18:10:36.634Z,98848.97
2018-11-11T18:13:05.876Z,98845.83
2018-11-11T18:15:38.449Z,98849.30
2018-11-11T18:18:07.245Z,98844.83
2018-11-11T18:20:35.868Z,98846.38
2018-11-11T18:23:05.107Z,98854.77
2018-11-11T18:25:33.685Z,98852.53
2018-11-11T18:28:02.622Z,98856.21
2018-11-11T18:30:32.558Z,98858.33
2018-11-11T18:33:02.527Z,98862.77
2018-11-11T18:35:31.924Z,98870.36
2018-11-11T18:38:00.608Z,98873.37
2018-11-11T18:40:30.083Z,98874.31
2018-11-11T18:42:59.120Z,98861.98
2018-11-11T18:45:29.086Z,98841.71
2018-11-11T18:48:01.843Z,98829.51
2018-11-11T18:50:33.072Z,98848.47
2018-11-11T18:53:02.133Z,98849.99
2018-11-11T18:55:30.835Z,98859.39
2018-11-11T18:57:59.433Z,98860.58
2018-11-11T19:00:29.554Z,98854.56
2018-11-11T19:02:58.435Z,98860.92
2018-11-11T19:05:27.500Z,98862.81
2018-11-11T19:07:56.297Z,98875.92
2018-11-11T19:10:27.210Z,98882.61
2018-11-11T19:12:58.121Z,98880.83
2018-11-11T19:15:26.727Z,98875.55
2018-11-11T19:17:55.451Z,98878.16
2018-11-11T19:20:25.188Z,98885.45
2018-11-11T19:22:53.825Z,98896.83
2018-11-11T19:25:23.784Z,98914.56
2018-11-11T19:27:53.412Z,98911.19
2018-11-11T19:30:23.195Z,98906.64
2018-11-11T19:32:52.061Z,98906.19
2018-11-11T19:35:20.750Z,98918.98
2018-11-11T19:37:50.771Z,98922.81
2018-11-11T19:40:20.717Z,98937.00
2018-11-11T19:42:49.961Z,98954.06
2018-11-11T19:45:19.837Z,98945.50
2018-11-11T19:47:48.665Z,98947.68
2018-11-11T19:50:18.564Z,98934.48
2018-11-11T19:52:48.313Z,98943.97
2018-11-11T19:55:17.776Z,98960.54
2018-11-11T19:57:46.352Z,98980.33
2018-11-11T20:00:17.586Z,98993.16
2018-11-11T20:02:47.200Z,98983.34
2018-11-11T20:05:21.170Z,98984.16
2018-11-11T20:07:51.026Z,98993.06
2018-11-11T20:10:20.162Z,98993.42
2018-11-11T20:12:52.793Z,98992.96
2018-11-11T20:15:23.228Z,98998.81
2018-11-11T20:17:51.753Z,99002.41
2018-11-11T20:20:25.245Z,99002.31
2018-11-11T20:22:57.299Z,99013.94
2018-11-11T20:25:32.513Z,99029.55
2018-11-11T20:28:01.537Z,99033.16
2018-11-11T20:30:31.448Z,99036.98
2018-11-11T20:33:00.300Z,99048.27
2018-11-11T20:35:30.183Z,99043.69
2018-11-11T20:37:58.668Z,99046.68
2018-11-11T20:40:28.117Z,99041.27
2018-11-11T20:42:57.321Z,99049.06
2018-11-11T20:45:27.512Z,99047.50
2018-11-11T20:47:56.916Z,99057.61
2018-11-11T20:50:26.930Z,99059.69
2018-11-11T20:52:58.696Z,99065.09
2018-11-11T20:55:27.304Z,99062.98
2018-11-11T20:57:55.825Z,99067.82
2018-11-11T21:00:26.520Z,99068.67
2018-11-11T21:02:55.365Z,99073.47
2018-11-11T21:05:25.323Z,99072.30
2018-11-11T21:07:57.594Z,99072.46
2018-11-11T21:10:30.475Z,99079.91
2018-11-11T21:13:02.314Z,99078.36
2018-11-11T21:15:33.027Z,99071.16
2018-11-11T21:18:04.264Z,99075.00
2018-11-11T21:20:36.653Z,99076.07
2018-11-11T21:23:09.661Z,99082.61
2018-11-11T21:25:38.523Z,99079.00
2018-11-11T21:28:07.014Z,99078.63
2018-11-11T21:30:37.418Z,99077.77
2018-11-11T21:33:07.824Z,99075.39
2018-11-11T21:35:39.088Z,99085.11
2018-11-11T21:38:10.034Z,99079.34
2018-11-11T21:40:42.295Z,99081.50
2018-11-11T21:43:11.888Z,99089.63
2018-11-11T21:45:41.902Z,99079.31
2018-11-11T21:48:10.421Z,99069.34
2018-11-11T21:50:40.731Z,99071.22
2018-11-11T21:53:25.816Z,99069.94
2018-11-11T21:55:55.041Z,99057.45
2018-11-11T21:58:25.741Z,99049.65
2018-11-11T22:00:55.353Z,99059.36
2018-11-11T22:03:28.897Z,99051.53
2018-11-11T22:06:00.692Z,99058.49
2018-11-11T22:08:31.053Z,99050.97
2018-11-11T22:11:05.498Z,99048.34
2018-11-11T22:13:34.040Z,99042.20
2018-11-11T22:16:02.784Z,99061.19
2018-11-11T22:18:32.964Z,99052.08
2018-11-11T22:21:02.952Z,99072.96
2018-11-11T22:23:33.746Z,99069.17
2018-11-11T22:26:06.711Z,99080.48
2018-11-11T22:28:38.060Z,99075.11
2018-11-11T22:31:07.891Z,99076.95
2018-11-11T22:33:42.662Z,99081.02
2018-11-11T22:36:11.224Z,99079.13
2018-11-11T22:38:41.690Z,99084.34
2018-11-11T22:41:12.448Z,99089.08
2018-11-11T22:43:47.126Z,99080.50
2018-11-11T22:46:17.776Z,99076.43
2018-11-11T22:48:48.840Z,99076.97
2018-11-11T22:51:19.817Z,99073.13
2018-11-11T22:53:48.937Z,99066.84
2018-11-11T22:56:19.303Z,99058.88
2018-11-11T22:58:51.127Z,99052.78
2018-11-11T23:01:25.114Z,99048.19
2018-11-11T23:03:56.850Z,99042.53
2018-11-11T23:06:27.607Z,99043.17
2018-11-11T23:08:57.640Z,99043.95
2018-11-11T23:11:33.181Z,99044.22
2018-11-11T23:14:06.156Z,99045.75
2018-11-11T23:16:35.541Z,99048.72
2018-11-11T23:19:06.186Z,99061.64
2018-11-11T23:21:36.365Z,99067.91
2018-11-11T23:24:05.643Z,99070.53
2018-11-11T23:26:34.173Z,99073.59
2018-11-11T23:29:03.363Z,99082.59
2018-11-11T23:31:38.101Z,99086.05
2018-11-11T23:34:06.657Z,99076.42
2018-11-11T23:36:38.388Z,99073.72
2018-11-11T23:39:08.837Z,99075.34
2018-11-11T23:41:37.453Z,99079.64
2018-11-11T23:44:06.967Z,99072.72
2018-11-11T23:46:36.310Z,99076.15
2018-11-11T23:49:04.961Z,99073.28
2018-11-11T23:51:33.485Z,99071.41
2018-11-11T23:54:02.040Z,99061.37
2018-11-11T23:56:30.945Z,99054.09
2018-11-11T23:58:59.515Z,99050.63
